sensor_id;sensor_type;location;lat;lon;timestamp;P1;durP1;ratioP1;P2;durP2;ratioP2
65769;SDS011;52512;47.650;8.578;2022-09-09T00:04:46;2.60;;;1.50;;
65769;SDS011;52512;47.650;8.578;2022-09-09T00:07:30;1.47;;;1.37;;
65769;SDS011;52512;47.650;8.578;2022-09-09T00:10:19;4.33;;;2.17;;
65769;SDS011;52512;47.650;8.578;2022-09-09T00:12:53;6.03;;;1.40;;
65769;SDS011;52512;47.650;8.578;2022-09-09T00:16:00;1.60;;;1.30;;
65769;SDS011;52512;47.650;8.578;2022-09-09T00:18:44;1.20;;;1.20;;
65769;SDS011;52512;47.650;8.578;2022-09-09T00:21:27;1.30;;;1.20;;
65769;SDS011;52512;47.650;8.578;2022-09-09T00:24:22;5.13;;;1.50;;
65769;SDS011;52512;47.650;8.578;2022-09-09T00:26:53;3.80;;;1.03;;
65769;SDS011;52512;47.650;8.578;2022-09-09T00:32:13;3.70;;;1.20;;
65769;SDS011;52512;47.650;8.578;2022-09-09T00:34:47;8.17;;;1.37;;
65769;SDS011;52512;47.650;8.578;2022-09-09T00:37:41;5.20;;;1.47;;
65769;SDS011;52512;47.650;8.578;2022-09-09T00:43:29;9.53;;;1.30;;
65769;SDS011;52512;47.650;8.578;2022-09-09T00:46:05;1.87;;;1.43;;
65769;SDS011;52512;47.650;8.578;2022-09-09T01:02:39;1.00;;;1.00;;
65769;SDS011;52512;47.650;8.578;2022-09-09T01:10:59;3.47;;;1.10;;
65769;SDS011;52512;47.650;8.578;2022-09-09T01:13:31;5.00;;;1.30;;
65769;SDS011;52512;47.650;8.578;2022-09-09T01:16:00;1.60;;;1.43;;
65769;SDS011;52512;47.650;8.578;2022-09-09T01:18:34;2.00;;;1.90;;
65769;SDS011;52512;47.650;8.578;2022-09-09T01:24:18;5.43;;;1.50;;
65769;SDS011;52512;47.650;8.578;2022-09-09T01:26:52;4.47;;;1.63;;
65769;SDS011;52512;47.650;8.578;2022-09-09T01:29:22;1.53;;;1.33;;
65769;SDS011;52512;47.650;8.578;2022-09-09T01:31:52;3.07;;;1.53;;
65769;SDS011;52512;47.650;8.578;2022-09-09T01:34:31;2.00;;;1.30;;
65769;SDS011;52512;47.650;8.578;2022-09-09T01:37:02;5.40;;;1.73;;
65769;SDS011;52512;47.650;8.578;2022-09-09T01:39:30;4.07;;;2.00;;
65769;SDS011;52512;47.650;8.578;2022-09-09T01:41:57;3.30;;;1.53;;
65769;SDS011;52512;47.650;8.578;2022-09-09T01:44:23;3.90;;;1.53;;
65769;SDS011;52512;47.650;8.578;2022-09-09T01:46:50;2.13;;;1.67;;
65769;SDS011;52512;47.650;8.578;2022-09-09T01:49:16;0.90;;;0.90;;
65769;SDS011;52512;47.650;8.578;2022-09-09T01:51:43;1.90;;;1.00;;
65769;SDS011;52512;47.650;8.578;2022-09-09T01:54:11;1.57;;;1.23;;
65769;SDS011;52512;47.650;8.578;2022-09-09T02:02:18;2.40;;;1.40;;
65769;SDS011;52512;47.650;8.578;2022-09-09T02:04:52;2.80;;;1.40;;
65769;SDS011;52512;47.650;8.578;2022-09-09T02:12:35;4.80;;;1.33;;
65769;SDS011;52512;47.650;8.578;2022-09-09T02:15:07;2.30;;;1.10;;
65769;SDS011;52512;47.650;8.578;2022-09-09T02:17:43;1.40;;;1.30;;
65769;SDS011;52512;47.650;8.578;2022-09-09T02:20:12;1.97;;;1.40;;
65769;SDS011;52512;47.650;8.578;2022-09-09T02:22:40;2.63;;;1.30;;
65769;SDS011;52512;47.650;8.578;2022-09-09T02:25:09;2.23;;;1.97;;
65769;SDS011;52512;47.650;8.578;2022-09-09T02:27:39;1.80;;;1.37;;
65769;SDS011;52512;47.650;8.578;2022-09-09T02:30:06;2.70;;;1.60;;
65769;SDS011;52512;47.650;8.578;2022-09-09T02:32:33;5.30;;;1.50;;
65769;SDS011;52512;47.650;8.578;2022-09-09T02:35:05;2.43;;;2.00;;
65769;SDS011;52512;47.650;8.578;2022-09-09T02:37:36;7.93;;;2.00;;
65769;SDS011;52512;47.650;8.578;2022-09-09T02:40:04;8.73;;;1.37;;
65769;SDS011;52512;47.650;8.578;2022-09-09T02:42:34;7.80;;;1.30;;
65769;SDS011;52512;47.650;8.578;2022-09-09T02:45:05;3.23;;;1.57;;
65769;SDS011;52512;47.650;8.578;2022-09-09T02:55:39;3.10;;;1.10;;
65769;SDS011;52512;47.650;8.578;2022-09-09T02:58:23;2.40;;;1.37;;
65769;SDS011;52512;47.650;8.578;2022-09-09T03:00:50;2.40;;;1.10;;
65769;SDS011;52512;47.650;8.578;2022-09-09T03:03:16;1.50;;;1.07;;
65769;SDS011;52512;47.650;8.578;2022-09-09T03:05:44;5.50;;;1.30;;
65769;SDS011;52512;47.650;8.578;2022-09-09T03:08:12;3.57;;;1.30;;
65769;SDS011;52512;47.650;8.578;2022-09-09T03:10:38;4.10;;;1.40;;
65769;SDS011;52512;47.650;8.578;2022-09-09T03:13:04;1.63;;;1.47;;
65769;SDS011;52512;47.650;8.578;2022-09-09T03:15:33;1.10;;;1.10;;
65769;SDS011;52512;47.650;8.578;2022-09-09T03:17:59;1.07;;;1.07;;
65769;SDS011;52512;47.650;8.578;2022-09-09T03:20:26;2.67;;;1.40;;
65769;SDS011;52512;47.650;8.578;2022-09-09T03:22:53;1.67;;;1.27;;
65769;SDS011;52512;47.650;8.578;2022-09-09T03:25:20;5.53;;;1.50;;
65769;SDS011;52512;47.650;8.578;2022-09-09T03:27:48;1.80;;;1.10;;
65769;SDS011;52512;47.650;8.578;2022-09-09T03:30:15;4.20;;;1.50;;
65769;SDS011;52512;47.650;8.578;2022-09-09T03:32:41;3.63;;;1.20;;
65769;SDS011;52512;47.650;8.578;2022-09-09T03:35:07;3.07;;;1.83;;
65769;SDS011;52512;47.650;8.578;2022-09-09T03:37:33;9.17;;;1.53;;
65769;SDS011;52512;47.650;8.578;2022-09-09T03:39:59;6.00;;;1.30;;
65769;SDS011;52512;47.650;8.578;2022-09-09T03:42:25;2.20;;;2.00;;
65769;SDS011;52512;47.650;8.578;2022-09-09T03:44:51;2.37;;;1.47;;
65769;SDS011;52512;47.650;8.578;2022-09-09T03:47:17;1.67;;;1.57;;
65769;SDS011;52512;47.650;8.578;2022-09-09T03:49:43;3.27;;;1.33;;
65769;SDS011;52512;47.650;8.578;2022-09-09T03:52:09;5.90;;;1.70;;
65769;SDS011;52512;47.650;8.578;2022-09-09T03:54:35;1.70;;;1.23;;
65769;SDS011;52512;47.650;8.578;2022-09-09T03:57:01;1.53;;;1.40;;
65769;SDS011;52512;47.650;8.578;2022-09-09T03:59:27;1.47;;;1.30;;
65769;SDS011;52512;47.650;8.578;2022-09-09T04:01:53;6.83;;;1.50;;
65769;SDS011;52512;47.650;8.578;2022-09-09T04:04:19;1.53;;;1.10;;
65769;SDS011;52512;47.650;8.578;2022-09-09T04:06:45;4.83;;;1.90;;
65769;SDS011;52512;47.650;8.578;2022-09-09T04:09:13;1.27;;;1.17;;
65769;SDS011;52512;47.650;8.578;2022-09-09T04:11:39;1.00;;;1.00;;
65769;SDS011;52512;47.650;8.578;2022-09-09T04:14:04;2.73;;;1.83;;
65769;SDS011;52512;47.650;8.578;2022-09-09T04:16:31;1.10;;;1.00;;
65769;SDS011;52512;47.650;8.578;2022-09-09T04:18:58;1.73;;;1.20;;
65769;SDS011;52512;47.650;8.578;2022-09-09T04:21:25;1.07;;;1.00;;
65769;SDS011;52512;47.650;8.578;2022-09-09T04:23:51;0.90;;;0.83;;
65769;SDS011;52512;47.650;8.578;2022-09-09T04:26:17;1.33;;;1.23;;
65769;SDS011;52512;47.650;8.578;2022-09-09T04:28:43;2.30;;;1.17;;
65769;SDS011;52512;47.650;8.578;2022-09-09T04:31:09;11.27;;;1.60;;
65769;SDS011;52512;47.650;8.578;2022-09-09T04:33:39;1.70;;;1.30;;
65769;SDS011;52512;47.650;8.578;2022-09-09T04:36:05;1.40;;;1.30;;
65769;SDS011;52512;47.650;8.578;2022-09-09T04:38:31;1.33;;;1.23;;
65769;SDS011;52512;47.650;8.578;2022-09-09T04:40:57;1.23;;;1.10;;
65769;SDS011;52512;47.650;8.578;2022-09-09T04:43:23;2.20;;;1.23;;
65769;SDS011;52512;47.650;8.578;2022-09-09T04:45:50;10.23;;;1.63;;
65769;SDS011;52512;47.650;8.578;2022-09-09T04:48:17;4.70;;;1.53;;
65769;SDS011;52512;47.650;8.578;2022-09-09T04:50:42;1.90;;;1.53;;
65769;SDS011;52512;47.650;8.578;2022-09-09T04:53:08;2.03;;;1.57;;
65769;SDS011;52512;47.650;8.578;2022-09-09T04:55:35;2.73;;;1.23;;
65769;SDS011;52512;47.650;8.578;2022-09-09T04:58:05;1.70;;;1.37;;
65769;SDS011;52512;47.650;8.578;2022-09-09T05:00:32;3.83;;;1.53;;
65769;SDS011;52512;47.650;8.578;2022-09-09T05:03:02;1.37;;;1.10;;
65769;SDS011;52512;47.650;8.578;2022-09-09T05:05:31;1.30;;;1.20;;
65769;SDS011;52512;47.650;8.578;2022-09-09T05:08:02;4.93;;;1.30;;
65769;SDS011;52512;47.650;8.578;2022-09-09T05:10:28;10.03;;;1.90;;
65769;SDS011;52512;47.650;8.578;2022-09-09T05:12:54;1.80;;;1.30;;
65769;SDS011;52512;47.650;8.578;2022-09-09T05:15:19;2.60;;;1.30;;
65769;SDS011;52512;47.650;8.578;2022-09-09T05:17:46;1.60;;;1.30;;
65769;SDS011;52512;47.650;8.578;2022-09-09T05:20:11;3.33;;;2.20;;
65769;SDS011;52512;47.650;8.578;2022-09-09T05:22:37;2.00;;;1.90;;
65769;SDS011;52512;47.650;8.578;2022-09-09T05:25:03;8.47;;;2.83;;
65769;SDS011;52512;47.650;8.578;2022-09-09T05:27:29;3.80;;;2.07;;
65769;SDS011;52512;47.650;8.578;2022-09-09T05:29:57;1.90;;;1.80;;
65769;SDS011;52512;47.650;8.578;2022-09-09T05:32:25;2.70;;;2.20;;
65769;SDS011;52512;47.650;8.578;2022-09-09T05:34:51;7.43;;;2.80;;
65769;SDS011;52512;47.650;8.578;2022-09-09T05:37:17;28.20;;;2.37;;
65769;SDS011;52512;47.650;8.578;2022-09-09T05:39:44;4.80;;;2.70;;
65769;SDS011;52512;47.650;8.578;2022-09-09T05:42:10;2.60;;;2.40;;
65769;SDS011;52512;47.650;8.578;2022-09-09T05:44:35;1.90;;;1.80;;
65769;SDS011;52512;47.650;8.578;2022-09-09T05:47:02;4.77;;;2.50;;
65769;SDS011;52512;47.650;8.578;2022-09-09T05:49:27;5.50;;;2.83;;
65769;SDS011;52512;47.650;8.578;2022-09-09T05:51:53;4.93;;;1.97;;
65769;SDS011;52512;47.650;8.578;2022-09-09T05:54:19;2.10;;;1.97;;
65769;SDS011;52512;47.650;8.578;2022-09-09T05:56:45;4.33;;;2.47;;
65769;SDS011;52512;47.650;8.578;2022-09-09T05:59:10;4.73;;;2.40;;
65769;SDS011;52512;47.650;8.578;2022-09-09T06:01:37;4.10;;;2.10;;
65769;SDS011;52512;47.650;8.578;2022-09-09T06:04:07;10.23;;;2.00;;
65769;SDS011;52512;47.650;8.578;2022-09-09T06:06:37;5.63;;;2.43;;
65769;SDS011;52512;47.650;8.578;2022-09-09T06:09:05;2.90;;;1.77;;
65769;SDS011;52512;47.650;8.578;2022-09-09T06:11:35;2.87;;;1.57;;
65769;SDS011;52512;47.650;8.578;2022-09-09T06:14:02;2.80;;;1.73;;
65769;SDS011;52512;47.650;8.578;2022-09-09T06:16:29;1.77;;;1.67;;
65769;SDS011;52512;47.650;8.578;2022-09-09T06:18:57;1.77;;;1.67;;
65769;SDS011;52512;47.650;8.578;2022-09-09T06:21:27;1.50;;;1.40;;
65769;SDS011;52512;47.650;8.578;2022-09-09T06:23:58;1.70;;;1.60;;
65769;SDS011;52512;47.650;8.578;2022-09-09T06:26:24;1.70;;;1.60;;
65769;SDS011;52512;47.650;8.578;2022-09-09T06:29:00;1.87;;;1.37;;
65769;SDS011;52512;47.650;8.578;2022-09-09T06:31:29;4.77;;;1.77;;
65769;SDS011;52512;47.650;8.578;2022-09-09T06:33:59;2.03;;;1.60;;
65769;SDS011;52512;47.650;8.578;2022-09-09T06:36:28;7.27;;;1.80;;
65769;SDS011;52512;47.650;8.578;2022-09-09T06:38:59;6.10;;;1.30;;
65769;SDS011;52512;47.650;8.578;2022-09-09T06:41:26;9.37;;;1.47;;
65769;SDS011;52512;47.650;8.578;2022-09-09T06:43:53;1.73;;;1.63;;
65769;SDS011;52512;47.650;8.578;2022-09-09T06:46:21;1.10;;;1.03;;
65769;SDS011;52512;47.650;8.578;2022-09-09T06:48:55;1.77;;;1.50;;
65769;SDS011;52512;47.650;8.578;2022-09-09T06:51:23;4.80;;;2.47;;
65769;SDS011;52512;47.650;8.578;2022-09-09T06:53:51;1.30;;;1.20;;
65769;SDS011;52512;47.650;8.578;2022-09-09T06:58:49;3.70;;;2.63;;
65769;SDS011;52512;47.650;8.578;2022-09-09T07:01:17;1.10;;;1.10;;
65769;SDS011;52512;47.650;8.578;2022-09-09T07:03:54;4.70;;;1.23;;
65769;SDS011;52512;47.650;8.578;2022-09-09T07:06:21;3.63;;;1.73;;
65769;SDS011;52512;47.650;8.578;2022-09-09T07:08:59;2.40;;;1.40;;
65769;SDS011;52512;47.650;8.578;2022-09-09T07:11:30;4.27;;;1.27;;
65769;SDS011;52512;47.650;8.578;2022-09-09T07:13:58;2.20;;;1.30;;
65769;SDS011;52512;47.650;8.578;2022-09-09T07:16:24;1.60;;;1.50;;
65769;SDS011;52512;47.650;8.578;2022-09-09T07:18:52;2.37;;;1.70;;
65769;SDS011;52512;47.650;8.578;2022-09-09T07:21:22;1.50;;;1.40;;
65769;SDS011;52512;47.650;8.578;2022-09-09T07:23:51;1.37;;;1.27;;
65769;SDS011;52512;47.650;8.578;2022-09-09T07:26:17;1.10;;;1.00;;
65769;SDS011;52512;47.650;8.578;2022-09-09T07:28:44;2.10;;;0.97;;
65769;SDS011;52512;47.650;8.578;2022-09-09T07:31:14;0.90;;;0.90;;
65769;SDS011;52512;47.650;8.578;2022-09-09T07:33:42;2.70;;;1.30;;
65769;SDS011;52512;47.650;8.578;2022-09-09T07:36:16;2.10;;;1.00;;
65769;SDS011;52512;47.650;8.578;2022-09-09T07:38:48;3.70;;;1.30;;
65769;SDS011;52512;47.650;8.578;2022-09-09T07:41:18;1.10;;;1.00;;
65769;SDS011;52512;47.650;8.578;2022-09-09T07:43:52;1.23;;;1.20;;
65769;SDS011;52512;47.650;8.578;2022-09-09T07:46:22;0.90;;;0.90;;
65769;SDS011;52512;47.650;8.578;2022-09-09T07:48:49;1.00;;;1.00;;
65769;SDS011;52512;47.650;8.578;2022-09-09T07:51:17;3.30;;;1.07;;
65769;SDS011;52512;47.650;8.578;2022-09-09T07:53:47;3.07;;;1.20;;
65769;SDS011;52512;47.650;8.578;2022-09-09T07:56:15;5.07;;;1.50;;
65769;SDS011;52512;47.650;8.578;2022-09-09T07:58:44;1.20;;;1.10;;
65769;SDS011;52512;47.650;8.578;2022-09-09T08:01:12;4.93;;;1.37;;
65769;SDS011;52512;47.650;8.578;2022-09-09T08:03:40;5.43;;;1.10;;
65769;SDS011;52512;47.650;8.578;2022-09-09T08:06:07;2.80;;;1.30;;
65769;SDS011;52512;47.650;8.578;2022-09-09T08:08:33;1.10;;;1.00;;
65769;SDS011;52512;47.650;8.578;2022-09-09T08:11:22;1.77;;;1.43;;
65769;SDS011;52512;47.650;8.578;2022-09-09T08:13:48;3.87;;;1.40;;
65769;SDS011;52512;47.650;8.578;2022-09-09T08:16:16;1.87;;;1.10;;
65769;SDS011;52512;47.650;8.578;2022-09-09T08:18:44;1.00;;;1.00;;
65769;SDS011;52512;47.650;8.578;2022-09-09T08:21:17;1.33;;;1.00;;
65769;SDS011;52512;47.650;8.578;2022-09-09T08:23:49;5.13;;;1.30;;
65769;SDS011;52512;47.650;8.578;2022-09-09T08:26:18;1.30;;;1.20;;
65769;SDS011;52512;47.650;8.578;2022-09-09T08:28:51;1.20;;;1.10;;
65769;SDS011;52512;47.650;8.578;2022-09-09T08:31:22;2.20;;;1.10;;
65769;SDS011;52512;47.650;8.578;2022-09-09T08:33:50;3.43;;;1.27;;
65769;SDS011;52512;47.650;8.578;2022-09-09T08:36:17;1.80;;;1.03;;
65769;SDS011;52512;47.650;8.578;2022-09-09T08:38:47;11.10;;;1.10;;
65769;SDS011;52512;47.650;8.578;2022-09-09T08:44:22;2.50;;;0.90;;
65769;SDS011;52512;47.650;8.578;2022-09-09T08:58:33;2.10;;;1.30;;
65769;SDS011;52512;47.650;8.578;2022-09-09T09:11:36;3.73;;;1.27;;
65769;SDS011;52512;47.650;8.578;2022-09-09T09:14:08;4.50;;;1.43;;
65769;SDS011;52512;47.650;8.578;2022-09-09T09:17:04;3.40;;;1.33;;
65769;SDS011;52512;47.650;8.578;2022-09-09T09:19:29;4.83;;;1.90;;
65769;SDS011;52512;47.650;8.578;2022-09-09T09:24:44;5.10;;;1.73;;
65769;SDS011;52512;47.650;8.578;2022-09-09T09:27:18;5.87;;;1.07;;
65769;SDS011;52512;47.650;8.578;2022-09-09T09:29:58;15.03;;;1.47;;
65769;SDS011;52512;47.650;8.578;2022-09-09T09:32:26;5.53;;;1.63;;
65769;SDS011;52512;47.650;8.578;2022-09-09T09:34:56;2.53;;;1.13;;
65769;SDS011;52512;47.650;8.578;2022-09-09T09:37:27;5.93;;;1.53;;
65769;SDS011;52512;47.650;8.578;2022-09-09T09:39:55;1.27;;;1.17;;
65769;SDS011;52512;47.650;8.578;2022-09-09T09:42:21;7.43;;;0.90;;
65769;SDS011;52512;47.650;8.578;2022-09-09T09:44:47;3.37;;;1.27;;
65769;SDS011;52512;47.650;8.578;2022-09-09T09:47:15;3.03;;;1.10;;
65769;SDS011;52512;47.650;8.578;2022-09-09T09:49:56;2.37;;;0.93;;
65769;SDS011;52512;47.650;8.578;2022-09-09T09:52:28;1.63;;;1.30;;
65769;SDS011;52512;47.650;8.578;2022-09-09T09:54:56;1.20;;;1.10;;
65769;SDS011;52512;47.650;8.578;2022-09-09T09:57:25;2.50;;;1.00;;
65769;SDS011;52512;47.650;8.578;2022-09-09T10:00:27;12.40;;;1.03;;
65769;SDS011;52512;47.650;8.578;2022-09-09T10:02:48;4.10;;;1.00;;
65769;SDS011;52512;47.650;8.578;2022-09-09T10:07:45;3.20;;;1.47;;
65769;SDS011;52512;47.650;8.578;2022-09-09T10:10:17;0.93;;;0.90;;
65769;SDS011;52512;47.650;8.578;2022-09-09T10:12:59;1.37;;;1.07;;
65769;SDS011;52512;47.650;8.578;2022-09-09T10:21:20;0.80;;;0.73;;
65769;SDS011;52512;47.650;8.578;2022-09-09T10:27:11;7.30;;;1.20;;
65769;SDS011;52512;47.650;8.578;2022-09-09T10:30:00;3.40;;;1.27;;
65769;SDS011;52512;47.650;8.578;2022-09-09T10:43:11;1.30;;;1.20;;
65769;SDS011;52512;47.650;8.578;2022-09-09T10:53:48;19.53;;;1.63;;
65769;SDS011;52512;47.650;8.578;2022-09-09T10:56:30;2.07;;;1.50;;
65769;SDS011;52512;47.650;8.578;2022-09-09T10:58:59;4.77;;;1.17;;
65769;SDS011;52512;47.650;8.578;2022-09-09T11:01:43;6.93;;;1.10;;
65769;SDS011;52512;47.650;8.578;2022-09-09T11:04:19;10.03;;;1.60;;
65769;SDS011;52512;47.650;8.578;2022-09-09T11:06:54;3.40;;;1.43;;
65769;SDS011;52512;47.650;8.578;2022-09-09T11:09:22;4.57;;;1.17;;
65769;SDS011;52512;47.650;8.578;2022-09-09T11:11:54;1.73;;;1.03;;
65769;SDS011;52512;47.650;8.578;2022-09-09T11:14:22;2.40;;;1.10;;
65769;SDS011;52512;47.650;8.578;2022-09-09T11:21:55;6.73;;;0.90;;
65769;SDS011;52512;47.650;8.578;2022-09-09T11:27:10;1.13;;;1.03;;
65769;SDS011;52512;47.650;8.578;2022-09-09T11:29:52;1.83;;;0.90;;
65769;SDS011;52512;47.650;8.578;2022-09-09T11:35:18;1.50;;;1.40;;
65769;SDS011;52512;47.650;8.578;2022-09-09T11:41:06;8.13;;;1.30;;
65769;SDS011;52512;47.650;8.578;2022-09-09T11:43:44;4.67;;;1.40;;
65769;SDS011;52512;47.650;8.578;2022-09-09T11:46:12;11.43;;;1.50;;
65769;SDS011;52512;47.650;8.578;2022-09-09T11:48:44;1.67;;;1.40;;
65769;SDS011;52512;47.650;8.578;2022-09-09T11:53:49;3.93;;;1.33;;
65769;SDS011;52512;47.650;8.578;2022-09-09T11:58:57;1.00;;;0.87;;
65769;SDS011;52512;47.650;8.578;2022-09-09T12:01:38;4.83;;;1.30;;
65769;SDS011;52512;47.650;8.578;2022-09-09T12:06:50;3.17;;;1.23;;
65769;SDS011;52512;47.650;8.578;2022-09-09T12:17:26;1.00;;;0.93;;
65769;SDS011;52512;47.650;8.578;2022-09-09T12:20:01;4.37;;;1.10;;
65769;SDS011;52512;47.650;8.578;2022-09-09T12:33:17;3.20;;;1.40;;
65769;SDS011;52512;47.650;8.578;2022-09-09T12:35:44;0.97;;;0.93;;
65769;SDS011;52512;47.650;8.578;2022-09-09T12:38:17;1.80;;;0.93;;
65769;SDS011;52512;47.650;8.578;2022-09-09T12:40:56;2.03;;;0.97;;
65769;SDS011;52512;47.650;8.578;2022-09-09T12:43:23;1.63;;;0.93;;
65769;SDS011;52512;47.650;8.578;2022-09-09T12:45:51;4.83;;;1.43;;
65769;SDS011;52512;47.650;8.578;2022-09-09T12:48:30;6.10;;;1.43;;
65769;SDS011;52512;47.650;8.578;2022-09-09T12:51:01;2.20;;;1.23;;
65769;SDS011;52512;47.650;8.578;2022-09-09T12:56:07;5.03;;;1.30;;
65769;SDS011;52512;47.650;8.578;2022-09-09T12:58:35;2.60;;;0.87;;
65769;SDS011;52512;47.650;8.578;2022-09-09T13:01:03;3.13;;;0.90;;
65769;SDS011;52512;47.650;8.578;2022-09-09T13:03:31;1.77;;;0.90;;
65769;SDS011;52512;47.650;8.578;2022-09-09T13:05:58;5.27;;;1.50;;
65769;SDS011;52512;47.650;8.578;2022-09-09T13:08:36;1.70;;;1.10;;
65769;SDS011;52512;47.650;8.578;2022-09-09T13:11:13;1.17;;;0.90;;
65769;SDS011;52512;47.650;8.578;2022-09-09T13:13:49;4.20;;;1.70;;
65769;SDS011;52512;47.650;8.578;2022-09-09T13:16:35;2.83;;;0.90;;
65769;SDS011;52512;47.650;8.578;2022-09-09T13:19:02;0.60;;;0.60;;
65769;SDS011;52512;47.650;8.578;2022-09-09T13:21:39;1.63;;;1.07;;
65769;SDS011;52512;47.650;8.578;2022-09-09T13:24:06;6.63;;;0.87;;
65769;SDS011;52512;47.650;8.578;2022-09-09T13:27:03;0.70;;;0.70;;
65769;SDS011;52512;47.650;8.578;2022-09-09T13:29:52;1.47;;;0.83;;
65769;SDS011;52512;47.650;8.578;2022-09-09T13:32:20;2.70;;;1.20;;
65769;SDS011;52512;47.650;8.578;2022-09-09T13:34:52;3.83;;;1.30;;
65769;SDS011;52512;47.650;8.578;2022-09-09T13:37:28;2.77;;;0.70;;
65769;SDS011;52512;47.650;8.578;2022-09-09T13:39:59;3.43;;;0.90;;
65769;SDS011;52512;47.650;8.578;2022-09-09T13:42:30;4.60;;;1.43;;
65769;SDS011;52512;47.650;8.578;2022-09-09T13:44:59;5.23;;;1.17;;
65769;SDS011;52512;47.650;8.578;2022-09-09T13:47:30;1.63;;;1.23;;
65769;SDS011;52512;47.650;8.578;2022-09-09T13:50:09;3.03;;;0.90;;
65769;SDS011;52512;47.650;8.578;2022-09-09T13:52:53;2.10;;;0.90;;
65769;SDS011;52512;47.650;8.578;2022-09-09T13:55:23;2.87;;;1.57;;
65769;SDS011;52512;47.650;8.578;2022-09-09T13:57:52;1.63;;;0.80;;
65769;SDS011;52512;47.650;8.578;2022-09-09T14:00:22;1.43;;;0.90;;
65769;SDS011;52512;47.650;8.578;2022-09-09T14:02:49;4.77;;;0.97;;
65769;SDS011;52512;47.650;8.578;2022-09-09T14:05:15;1.20;;;1.00;;
65769;SDS011;52512;47.650;8.578;2022-09-09T14:07:44;2.10;;;0.90;;
65769;SDS011;52512;47.650;8.578;2022-09-09T14:10:11;3.93;;;1.00;;
65769;SDS011;52512;47.650;8.578;2022-09-09T14:12:37;1.80;;;1.27;;
65769;SDS011;52512;47.650;8.578;2022-09-09T14:15:04;4.17;;;0.80;;
65769;SDS011;52512;47.650;8.578;2022-09-09T14:17:31;1.23;;;0.90;;
65769;SDS011;52512;47.650;8.578;2022-09-09T14:19:58;5.60;;;1.00;;
65769;SDS011;52512;47.650;8.578;2022-09-09T14:22:24;2.50;;;0.83;;
65769;SDS011;52512;47.650;8.578;2022-09-09T14:24:51;3.50;;;0.80;;
65769;SDS011;52512;47.650;8.578;2022-09-09T14:27:17;4.20;;;1.00;;
65769;SDS011;52512;47.650;8.578;2022-09-09T14:29:43;3.90;;;1.33;;
65769;SDS011;52512;47.650;8.578;2022-09-09T14:32:10;1.83;;;0.70;;
65769;SDS011;52512;47.650;8.578;2022-09-09T14:34:36;3.37;;;0.73;;
65769;SDS011;52512;47.650;8.578;2022-09-09T14:37:03;0.70;;;0.70;;
65769;SDS011;52512;47.650;8.578;2022-09-09T14:39:29;2.93;;;0.73;;
65769;SDS011;52512;47.650;8.578;2022-09-09T14:41:55;0.60;;;0.60;;
65769;SDS011;52512;47.650;8.578;2022-09-09T14:44:21;2.97;;;0.90;;
65769;SDS011;52512;47.650;8.578;2022-09-09T14:46:47;1.03;;;0.80;;
65769;SDS011;52512;47.650;8.578;2022-09-09T14:49:15;1.47;;;0.90;;
65769;SDS011;52512;47.650;8.578;2022-09-09T14:51:41;11.40;;;0.80;;
65769;SDS011;52512;47.650;8.578;2022-09-09T14:54:07;0.70;;;0.70;;
65769;SDS011;52512;47.650;8.578;2022-09-09T14:56:33;1.03;;;0.80;;
65769;SDS011;52512;47.650;8.578;2022-09-09T14:59:02;4.80;;;0.83;;
65769;SDS011;52512;47.650;8.578;2022-09-09T15:01:29;0.90;;;0.70;;
65769;SDS011;52512;47.650;8.578;2022-09-09T15:03:57;6.90;;;0.73;;
65769;SDS011;52512;47.650;8.578;2022-09-09T15:06:25;0.70;;;0.70;;
65769;SDS011;52512;47.650;8.578;2022-09-09T15:08:55;0.63;;;0.63;;
65769;SDS011;52512;47.650;8.578;2022-09-09T15:11:22;1.10;;;0.60;;
65769;SDS011;52512;47.650;8.578;2022-09-09T15:13:50;0.60;;;0.60;;
65769;SDS011;52512;47.650;8.578;2022-09-09T15:16:20;1.17;;;0.90;;
65769;SDS011;52512;47.650;8.578;2022-09-09T15:18:50;4.00;;;0.80;;
65769;SDS011;52512;47.650;8.578;2022-09-09T15:21:19;0.73;;;0.60;;
65769;SDS011;52512;47.650;8.578;2022-09-09T15:23:46;0.93;;;0.73;;
65769;SDS011;52512;47.650;8.578;2022-09-09T15:26:12;4.57;;;0.80;;
65769;SDS011;52512;47.650;8.578;2022-09-09T15:28:42;1.07;;;0.80;;
65769;SDS011;52512;47.650;8.578;2022-09-09T15:31:13;5.30;;;1.20;;
65769;SDS011;52512;47.650;8.578;2022-09-09T15:33:45;1.67;;;0.90;;
65769;SDS011;52512;47.650;8.578;2022-09-09T15:38:44;1.17;;;0.90;;
65769;SDS011;52512;47.650;8.578;2022-09-09T15:41:10;0.90;;;0.90;;
65769;SDS011;52512;47.650;8.578;2022-09-09T15:43:37;2.70;;;1.77;;
65769;SDS011;52512;47.650;8.578;2022-09-09T15:46:19;2.20;;;1.00;;
65769;SDS011;52512;47.650;8.578;2022-09-09T15:48:49;0.60;;;0.60;;
65769;SDS011;52512;47.650;8.578;2022-09-09T15:51:16;1.77;;;0.70;;
65769;SDS011;52512;47.650;8.578;2022-09-09T15:53:41;1.70;;;0.80;;
65769;SDS011;52512;47.650;8.578;2022-09-09T15:56:08;0.87;;;0.63;;
65769;SDS011;52512;47.650;8.578;2022-09-09T15:58:36;1.97;;;0.87;;
65769;SDS011;52512;47.650;8.578;2022-09-09T16:01:06;1.83;;;0.90;;
65769;SDS011;52512;47.650;8.578;2022-09-09T16:03:42;1.43;;;1.27;;
65769;SDS011;52512;47.650;8.578;2022-09-09T16:06:10;2.50;;;0.90;;
65769;SDS011;52512;47.650;8.578;2022-09-09T16:08:37;5.50;;;1.50;;
65769;SDS011;52512;47.650;8.578;2022-09-09T16:11:08;2.33;;;0.90;;
65769;SDS011;52512;47.650;8.578;2022-09-09T16:13:35;1.60;;;0.80;;
65769;SDS011;52512;47.650;8.578;2022-09-09T16:16:03;1.37;;;0.70;;
65769;SDS011;52512;47.650;8.578;2022-09-09T16:18:33;1.50;;;0.80;;
65769;SDS011;52512;47.650;8.578;2022-09-09T16:21:00;1.17;;;1.00;;
65769;SDS011;52512;47.650;8.578;2022-09-09T16:23:25;1.23;;;0.80;;
65769;SDS011;52512;47.650;8.578;2022-09-09T16:25:55;1.27;;;1.00;;
65769;SDS011;52512;47.650;8.578;2022-09-09T16:28:24;1.20;;;0.90;;
65769;SDS011;52512;47.650;8.578;2022-09-09T16:30:50;1.40;;;1.27;;
65769;SDS011;52512;47.650;8.578;2022-09-09T16:33:16;3.37;;;1.10;;
65769;SDS011;52512;47.650;8.578;2022-09-09T16:35:43;3.50;;;1.00;;
65769;SDS011;52512;47.650;8.578;2022-09-09T16:38:09;0.70;;;0.70;;
65769;SDS011;52512;47.650;8.578;2022-09-09T16:40:36;12.33;;;1.03;;
65769;SDS011;52512;47.650;8.578;2022-09-09T16:43:03;0.93;;;0.77;;
65769;SDS011;52512;47.650;8.578;2022-09-09T16:45:30;0.60;;;0.60;;
65769;SDS011;52512;47.650;8.578;2022-09-09T16:47:57;0.73;;;0.67;;
65769;SDS011;52512;47.650;8.578;2022-09-09T16:50:23;0.93;;;0.93;;
65769;SDS011;52512;47.650;8.578;2022-09-09T16:52:50;0.67;;;0.67;;
65769;SDS011;52512;47.650;8.578;2022-09-09T16:55:16;0.80;;;0.70;;
65769;SDS011;52512;47.650;8.578;2022-09-09T16:57:45;2.00;;;0.73;;
65769;SDS011;52512;47.650;8.578;2022-09-09T17:00:14;0.87;;;0.80;;
65769;SDS011;52512;47.650;8.578;2022-09-09T17:02:43;6.13;;;0.90;;
65769;SDS011;52512;47.650;8.578;2022-09-09T17:05:10;3.20;;;0.90;;
65769;SDS011;52512;47.650;8.578;2022-09-09T17:07:37;3.90;;;1.00;;
65769;SDS011;52512;47.650;8.578;2022-09-09T17:10:03;0.97;;;0.70;;
65769;SDS011;52512;47.650;8.578;2022-09-09T17:12:30;0.90;;;0.80;;
65769;SDS011;52512;47.650;8.578;2022-09-09T17:14:57;3.00;;;1.00;;
65769;SDS011;52512;47.650;8.578;2022-09-09T17:17:24;6.30;;;0.90;;
65769;SDS011;52512;47.650;8.578;2022-09-09T17:19:51;2.40;;;0.70;;
65769;SDS011;52512;47.650;8.578;2022-09-09T17:22:17;1.60;;;0.83;;
65769;SDS011;52512;47.650;8.578;2022-09-09T17:24:43;4.83;;;1.10;;
65769;SDS011;52512;47.650;8.578;2022-09-09T17:27:09;0.80;;;0.80;;
65769;SDS011;52512;47.650;8.578;2022-09-09T17:29:34;3.07;;;0.70;;
65769;SDS011;52512;47.650;8.578;2022-09-09T17:32:03;5.03;;;0.83;;
65769;SDS011;52512;47.650;8.578;2022-09-09T17:34:30;3.60;;;0.73;;
65769;SDS011;52512;47.650;8.578;2022-09-09T17:36:56;2.30;;;1.00;;
65769;SDS011;52512;47.650;8.578;2022-09-09T17:39:21;2.90;;;0.90;;
65769;SDS011;52512;47.650;8.578;2022-09-09T17:41:47;1.27;;;0.70;;